Tinsdal — V2AJ2 — position and weather

sailwx.info

Track history (hours):
 
Tides and Currents Weather Stations Pressure Air Temp Water Temp Dewpoint Dewpoint Depression Visibility Wind Speed Wind Dir Waves Ship Positions

Tinsdal

Last reported at 2014-Sep-18 07:17 UTC. Time now 2014-Sep-20 18:00 UTC.
Position N 50°36' E 000°23'.

Length 90 m; draft 5.8 m.

Type: Cargo ship. MMSI: 305573000.

Date/timePositionNaut miles runAvg speedWind from/ knotsBaromVisibWave heightAir tempDewpointWater temp
2014-Sep-18 07:17N 50°36' E 000°23'710.0
2014-Sep-18 06:34N 50°38' E 000°34'10 9.8
2014-Sep-18 05:33N 50°44' E 000°47'3110.2
2014-Sep-18 02:29N 51°03' E 001°26'1111.7
2014-Sep-18 01:34N 51°10' E 001°39'1111.1
2014-Sep-18 00:34N 51°19' E 001°49'1010.3
2014-Sep-17 23:34N 51°28' E 001°58'10 9.8
2014-Sep-17 22:33N 51°35' E 002°09'9 9.3
2014-Sep-17 21:33N 51°43' E 002°18'11 9.1
2014-Sep-17 20:24N 51°51' E 002°29'8 9.2
2014-Sep-17 19:29N 51°57' E 002°38'18 9.1
2014-Sep-17 17:33N 52°04' E 003°04'1010.2
2014-Sep-17 16:32N 52°04' E 003°21'1510.6
2014-Sep-17 15:10N 52°04' E 003°45'6 9.9
2014-Sep-17 14:34N 52°02' E 003°54'1111.1
2014-Sep-17 13:33N 51°57' E 004°10'1110.5
2014-Sep-17 12:33N 51°51' E 004°23'9 9.3
2014-Sep-17 11:34N 51°48' E 004°38'0 0.5
2014-Sep-17 10:34N 51°48' E 004°38'0 0.0
2014-Sep-17 09:34N 51°48' E 004°38'0 0.0
2014-Sep-17 08:34N 51°48' E 004°38'0 0.0
2014-Sep-17 07:34N 51°48' E 004°38'0 0.0
2014-Sep-17 06:34N 51°48' E 004°38'0 0.0
2014-Sep-17 05:34N 51°48' E 004°38'0 0.0
2014-Sep-17 04:34N 51°48' E 004°38'0 0.0
2014-Sep-17 03:34N 51°48' E 004°38'0 0.0
2014-Sep-17 02:34N 51°48' E 004°38'0 0.0
2014-Sep-17 01:34N 51°48' E 004°38'0 0.0
2014-Sep-17 00:34N 51°48' E 004°38'0 0.0
2014-Sep-16 23:34N 51°48' E 004°38'0 0.0
2014-Sep-16 22:34N 51°48' E 004°38'0 0.0
2014-Sep-16 21:34N 51°48' E 004°38'0 0.0
2014-Sep-16 20:33N 51°48' E 004°38'0 0.0
2014-Sep-16 19:33N 51°48' E 004°38'0 0.0
2014-Sep-16 18:33N 51°48' E 004°38'0 0.2
2014-Sep-16 17:33N 51°48' E 004°38'0 0.2
2014-Sep-16 16:34N 51°48' E 004°38'0 0.0
2014-Sep-16 15:34N 51°48' E 004°38'0 0.0
2014-Sep-16 14:34N 51°48' E 004°38'0 0.0
2014-Sep-16 13:33N 51°48' E 004°38'12 6.0
2014-Sep-16 11:33N 51°52' E 004°20'6 5.9
2014-Sep-16 10:33N 51°56' E 004°13'9 8.9
2014-Sep-16 09:33N 51°60' E 003°60'1010.1
2014-Sep-16 08:31N 51°59' E 003°43'10 8.6
2014-Sep-16 07:19N 51°55' E 003°27'16 8.8
2014-Sep-16 05:32N 51°53' E 003°02'8 8.2
2014-Sep-16 04:33N 51°53' E 002°49'7 7.5
2014-Sep-16 03:33N 51°52' E 002°37'9 8.8
2014-Sep-16 02:33N 51°50' E 002°23'9 8.7
2014-Sep-16 01:33N 51°43' E 002°14'8 7.9
2014-Sep-16 00:33N 51°38' E 002°04'8 8.3
2014-Sep-15 23:33N 51°35' E 001°52'19 9.5
2014-Sep-15 21:33N 51°28' E 001°24'1211.8
2014-Sep-15 20:33N 51°29' E 001°05'1312.9
2014-Sep-15 19:33N 51°29' E 000°44'1211.6
2014-Sep-15 18:34N 51°27' E 000°26'9 9.1
2014-Sep-15 17:34N 51°29' E 000°12'5 0.4
2014-Sep-15 07:10N 51°31' E 000°06'0 0.0
2014-Sep-15 06:28N 51°31' E 000°06'0 0.0
2014-Sep-15 05:28N 51°31' E 000°06'0 0.0
2014-Sep-15 04:22N 51°31' E 000°06'0 0.0
2014-Sep-15 03:28N 51°31' E 000°06'0 0.0
2014-Sep-14 21:28N 51°31' E 000°06'0 0.0
2014-Sep-14 18:22N 51°31' E 000°06'0 0.0
2014-Sep-14 17:28N 51°31' E 000°06'0 0.0
2014-Sep-14 08:28N 51°31' E 000°06'0 0.0
2014-Sep-14 07:28N 51°31' E 000°06'0 0.0
2014-Sep-14 06:28N 51°31' E 000°06'0 0.0
2014-Sep-13 18:28N 51°31' E 000°06'0 0.0
2014-Sep-13 15:10N 51°31' E 000°06'0 0.0
2014-Sep-13 13:31N 51°31' E 000°06'0 0.0
2014-Sep-13 12:22N 51°31' E 000°06'0 0.0
2014-Sep-13 11:28N 51°31' E 000°06'0 0.0
2014-Sep-13 10:28N 51°31' E 000°06'0 0.0
2014-Sep-13 08:28N 51°31' E 000°06'0 0.0
2014-Sep-13 07:28N 51°31' E 000°06'0 0.0
2014-Sep-13 06:22N 51°31' E 000°06'0 0.0
2014-Sep-13 04:22N 51°31' E 000°06'1 1.0
2014-Sep-13 03:33N 51°31' E 000°07'6 5.8
2014-Sep-13 02:34N 51°28' E 000°15'8 8.3
2014-Sep-13 01:33N 51°30' E 000°28'1110.9
2014-Sep-13 00:33N 51°30' E 000°46'9 9.3
2014-Sep-12 23:33N 51°32' E 001°00'8 7.8
2014-Sep-12 22:33N 51°36' E 001°11'8 8.2
2014-Sep-12 21:33N 51°42' E 001°20'10 9.6
2014-Sep-12 20:33N 51°49' E 001°30'2 1.6
2014-Sep-12 19:33N 51°51' E 001°31'0 0.1
2014-Sep-12 18:33N 51°51' E 001°31'0 0.0
2014-Sep-12 17:33N 51°51' E 001°31'0 0.0
2014-Sep-12 16:33N 51°51' E 001°31'0 0.0
2014-Sep-12 15:33N 51°51' E 001°31'6 6.3
2014-Sep-12 14:33N 51°46' E 001°23'10 9.5
2014-Sep-12 13:33N 51°41' E 001°10'9 8.6
2014-Sep-12 12:33N 51°38' E 000°58'6 5.8
2014-Sep-12 11:30N 51°37' E 000°48'0 0.2
2014-Sep-12 10:33N 51°37' E 000°48'0 0.0
2014-Sep-12 09:33N 51°37' E 000°48'0 0.0
2014-Sep-12 08:33N 51°37' E 000°48'0 0.0
2014-Sep-12 07:33N 51°37' E 000°48'0 0.0
2014-Sep-12 06:33N 51°37' E 000°48'0 0.0
2014-Sep-12 05:33N 51°37' E 000°48'0 0.0
2014-Sep-12 04:33N 51°37' E 000°48'0 0.0
2014-Sep-12 03:33N 51°37' E 000°48'0 0.0
2014-Sep-12 02:33N 51°37' E 000°48'0 0.0
2014-Sep-12 01:33N 51°37' E 000°48'0 0.0
2014-Sep-12 00:33N 51°37' E 000°48'0 0.0
2014-Sep-11 23:33N 51°37' E 000°48'0 0.0
2014-Sep-11 22:33N 51°37' E 000°48'0 0.0
2014-Sep-11 21:33N 51°37' E 000°48'0 0.0
2014-Sep-11 20:33N 51°37' E 000°48'0 0.0
2014-Sep-11 19:33N 51°37' E 000°48'0 0.0
2014-Sep-11 18:33N 51°37' E 000°48'0 0.0
2014-Sep-11 17:33N 51°37' E 000°48'0 0.0
2014-Sep-11 16:33N 51°37' E 000°48'0 0.0
2014-Sep-11 15:33N 51°37' E 000°48'0 0.0
2014-Sep-11 14:33N 51°37' E 000°48'0 0.0
2014-Sep-11 13:33N 51°37' E 000°48'0 0.0
2014-Sep-11 12:33N 51°37' E 000°48'0 0.0
2014-Sep-11 11:33N 51°37' E 000°48'0 0.0
2014-Sep-11 10:33N 51°37' E 000°48'0 0.0
2014-Sep-11 09:33N 51°37' E 000°48'0 0.0
2014-Sep-11 08:33N 51°37' E 000°48'0 0.0
2014-Sep-11 07:33N 51°37' E 000°48'0 0.0
2014-Sep-11 06:33N 51°37' E 000°48'0 0.0
2014-Sep-11 05:33N 51°37' E 000°48'0 0.0
2014-Sep-11 04:33N 51°37' E 000°48'0 0.0
2014-Sep-11 03:33N 51°37' E 000°48'0 0.0
2014-Sep-11 02:33N 51°37' E 000°48'0 0.0
2014-Sep-11 01:33N 51°37' E 000°48'0 0.0
2014-Sep-11 00:33N 51°37' E 000°48'0 0.3
2014-Sep-10 23:33N 51°37' E 000°48'7 7.4
2014-Sep-10 22:33N 51°39' E 000°60'1111.1
2014-Sep-10 21:33N 51°43' E 001°16'1212.0
2014-Sep-10 20:34N 51°51' E 001°31'4 4.2
2014-Sep-10 19:33N 51°50' E 001°37'5 4.9
2014-Sep-10 18:33N 51°51' E 001°45'5 5.5
2014-Sep-10 17:33N 51°46' E 001°49'7 7.2
2014-Sep-10 16:33N 51°39' E 001°50'10 9.6
2014-Sep-10 15:33N 51°30' E 001°48'1010.0
2014-Sep-10 14:33N 51°20' E 001°45'1010.4
2014-Sep-10 13:33N 51°10' E 001°43'9 8.5
2014-Sep-10 12:33N 51°03' E 001°35'43 8.6
2014-Sep-10 07:33N 50°28' E 000°54'9 8.9
2014-Sep-10 06:32N 50°25' E 000°41'8 8.3
2014-Sep-10 05:33N 50°23' E 000°29'114 9.2
2014-Sep-09 17:14N 49°53' W 002°22'6 8.8
2014-Sep-09 16:33N 49°51' W 002°31'117 8.4
2014-Sep-09 02:33N 48°56' W 005°09'1010.4
2014-Sep-09 01:33N 48°50' W 005°23'10 9.8
2014-Sep-09 00:33N 48°45' W 005°35'10 9.5
2014-Sep-08 23:33N 48°37' W 005°42'8 8.3
2014-Sep-08 22:33N 48°29' W 005°47'  
Track history (hours):
 
Tides and Currents Weather Stations Pressure Air Temp Water Temp Dewpoint Dewpoint Depression Visibility Wind Speed Wind Dir Waves Ship Positions

Tinsdal

Last reported at 2014-Sep-18 07:17 UTC. Time now 2014-Sep-20 18:00 UTC.
Position N 50°36' E 000°23'.

Length 90 m; draft 5.8 m.

Type: Cargo ship. MMSI: 305573000.

Date/timePositionNaut miles runAvg speedWind from/ knotsBaromVisibWave heightAir tempDewpointWater temp
2014-Sep-18 07:17N 50°36' E 000°23'710.0
2014-Sep-18 06:34N 50°38' E 000°34'10 9.8
2014-Sep-18 05:33N 50°44' E 000°47'3110.2
2014-Sep-18 02:29N 51°03' E 001°26'1111.7
2014-Sep-18 01:34N 51°10' E 001°39'1111.1
2014-Sep-18 00:34N 51°19' E 001°49'1010.3
2014-Sep-17 23:34N 51°28' E 001°58'10 9.8
2014-Sep-17 22:33N 51°35' E 002°09'9 9.3
2014-Sep-17 21:33N 51°43' E 002°18'11 9.1
2014-Sep-17 20:24N 51°51' E 002°29'8 9.2
2014-Sep-17 19:29N 51°57' E 002°38'18 9.1
2014-Sep-17 17:33N 52°04' E 003°04'1010.2
2014-Sep-17 16:32N 52°04' E 003°21'1510.6
2014-Sep-17 15:10N 52°04' E 003°45'6 9.9
2014-Sep-17 14:34N 52°02' E 003°54'1111.1
2014-Sep-17 13:33N 51°57' E 004°10'1110.5
2014-Sep-17 12:33N 51°51' E 004°23'9 9.3
2014-Sep-17 11:34N 51°48' E 004°38'0 0.5
2014-Sep-17 10:34N 51°48' E 004°38'0 0.0
2014-Sep-17 09:34N 51°48' E 004°38'0 0.0
2014-Sep-17 08:34N 51°48' E 004°38'0 0.0
2014-Sep-17 07:34N 51°48' E 004°38'0 0.0
2014-Sep-17 06:34N 51°48' E 004°38'0 0.0
2014-Sep-17 05:34N 51°48' E 004°38'0 0.0
2014-Sep-17 04:34N 51°48' E 004°38'0 0.0
2014-Sep-17 03:34N 51°48' E 004°38'0 0.0
2014-Sep-17 02:34N 51°48' E 004°38'0 0.0
2014-Sep-17 01:34N 51°48' E 004°38'0 0.0
2014-Sep-17 00:34N 51°48' E 004°38'0 0.0
2014-Sep-16 23:34N 51°48' E 004°38'0 0.0
2014-Sep-16 22:34N 51°48' E 004°38'0 0.0
2014-Sep-16 21:34N 51°48' E 004°38'0 0.0
2014-Sep-16 20:33N 51°48' E 004°38'0 0.0
2014-Sep-16 19:33N 51°48' E 004°38'0 0.0
2014-Sep-16 18:33N 51°48' E 004°38'0 0.2
2014-Sep-16 17:33N 51°48' E 004°38'0 0.2
2014-Sep-16 16:34N 51°48' E 004°38'0 0.0
2014-Sep-16 15:34N 51°48' E 004°38'0 0.0
2014-Sep-16 14:34N 51°48' E 004°38'0 0.0
2014-Sep-16 13:33N 51°48' E 004°38'12 6.0
2014-Sep-16 11:33N 51°52' E 004°20'6 5.9
2014-Sep-16 10:33N 51°56' E 004°13'9 8.9
2014-Sep-16 09:33N 51°60' E 003°60'1010.1
2014-Sep-16 08:31N 51°59' E 003°43'10 8.6
2014-Sep-16 07:19N 51°55' E 003°27'16 8.8
2014-Sep-16 05:32N 51°53' E 003°02'8 8.2
2014-Sep-16 04:33N 51°53' E 002°49'7 7.5
2014-Sep-16 03:33N 51°52' E 002°37'9 8.8
2014-Sep-16 02:33N 51°50' E 002°23'9 8.7
2014-Sep-16 01:33N 51°43' E 002°14'8 7.9
2014-Sep-16 00:33N 51°38' E 002°04'8 8.3
2014-Sep-15 23:33N 51°35' E 001°52'19 9.5
2014-Sep-15 21:33N 51°28' E 001°24'1211.8
2014-Sep-15 20:33N 51°29' E 001°05'1312.9
2014-Sep-15 19:33N 51°29' E 000°44'1211.6
2014-Sep-15 18:34N 51°27' E 000°26'9 9.1
2014-Sep-15 17:34N 51°29' E 000°12'5 0.4
2014-Sep-15 07:10N 51°31' E 000°06'0 0.0
2014-Sep-15 06:28N 51°31' E 000°06'0 0.0
2014-Sep-15 05:28N 51°31' E 000°06'0 0.0
2014-Sep-15 04:22N 51°31' E 000°06'0 0.0
2014-Sep-15 03:28N 51°31' E 000°06'0 0.0
2014-Sep-14 21:28N 51°31' E 000°06'0 0.0
2014-Sep-14 18:22N 51°31' E 000°06'0 0.0
2014-Sep-14 17:28N 51°31' E 000°06'0 0.0
2014-Sep-14 08:28N 51°31' E 000°06'0 0.0
2014-Sep-14 07:28N 51°31' E 000°06'0 0.0
2014-Sep-14 06:28N 51°31' E 000°06'0 0.0
2014-Sep-13 18:28N 51°31' E 000°06'0 0.0
2014-Sep-13 15:10N 51°31' E 000°06'0 0.0
2014-Sep-13 13:31N 51°31' E 000°06'0 0.0
2014-Sep-13 12:22N 51°31' E 000°06'0 0.0
2014-Sep-13 11:28N 51°31' E 000°06'0 0.0
2014-Sep-13 10:28N 51°31' E 000°06'0 0.0
2014-Sep-13 08:28N 51°31' E 000°06'0 0.0
2014-Sep-13 07:28N 51°31' E 000°06'0 0.0
2014-Sep-13 06:22N 51°31' E 000°06'0 0.0
2014-Sep-13 04:22N 51°31' E 000°06'1 1.0
2014-Sep-13 03:33N 51°31' E 000°07'6 5.8
2014-Sep-13 02:34N 51°28' E 000°15'8 8.3
2014-Sep-13 01:33N 51°30' E 000°28'1110.9
2014-Sep-13 00:33N 51°30' E 000°46'9 9.3
2014-Sep-12 23:33N 51°32' E 001°00'8 7.8
2014-Sep-12 22:33N 51°36' E 001°11'8 8.2
2014-Sep-12 21:33N 51°42' E 001°20'10 9.6
2014-Sep-12 20:33N 51°49' E 001°30'2 1.6
2014-Sep-12 19:33N 51°51' E 001°31'0 0.1
2014-Sep-12 18:33N 51°51' E 001°31'0 0.0
2014-Sep-12 17:33N 51°51' E 001°31'0 0.0
2014-Sep-12 16:33N 51°51' E 001°31'0 0.0
2014-Sep-12 15:33N 51°51' E 001°31'6 6.3
2014-Sep-12 14:33N 51°46' E 001°23'10 9.5
2014-Sep-12 13:33N 51°41' E 001°10'9 8.6
2014-Sep-12 12:33N 51°38' E 000°58'6 5.8
2014-Sep-12 11:30N 51°37' E 000°48'0 0.2
2014-Sep-12 10:33N 51°37' E 000°48'0 0.0
2014-Sep-12 09:33N 51°37' E 000°48'0 0.0
2014-Sep-12 08:33N 51°37' E 000°48'0 0.0
2014-Sep-12 07:33N 51°37' E 000°48'0 0.0
2014-Sep-12 06:33N 51°37' E 000°48'0 0.0
2014-Sep-12 05:33N 51°37' E 000°48'0 0.0
2014-Sep-12 04:33N 51°37' E 000°48'0 0.0
2014-Sep-12 03:33N 51°37' E 000°48'0 0.0
2014-Sep-12 02:33N 51°37' E 000°48'0 0.0
2014-Sep-12 01:33N 51°37' E 000°48'0 0.0
2014-Sep-12 00:33N 51°37' E 000°48'0 0.0
2014-Sep-11 23:33N 51°37' E 000°48'0 0.0
2014-Sep-11 22:33N 51°37' E 000°48'0 0.0
2014-Sep-11 21:33N 51°37' E 000°48'0 0.0
2014-Sep-11 20:33N 51°37' E 000°48'0 0.0
2014-Sep-11 19:33N 51°37' E 000°48'0 0.0
2014-Sep-11 18:33N 51°37' E 000°48'0 0.0
2014-Sep-11 17:33N 51°37' E 000°48'0 0.0
2014-Sep-11 16:33N 51°37' E 000°48'0 0.0
2014-Sep-11 15:33N 51°37' E 000°48'0 0.0
2014-Sep-11 14:33N 51°37' E 000°48'0 0.0
2014-Sep-11 13:33N 51°37' E 000°48'0 0.0
2014-Sep-11 12:33N 51°37' E 000°48'0 0.0
2014-Sep-11 11:33N 51°37' E 000°48'0 0.0
2014-Sep-11 10:33N 51°37' E 000°48'0 0.0
2014-Sep-11 09:33N 51°37' E 000°48'0 0.0
2014-Sep-11 08:33N 51°37' E 000°48'0 0.0
2014-Sep-11 07:33N 51°37' E 000°48'0 0.0
2014-Sep-11 06:33N 51°37' E 000°48'0 0.0
2014-Sep-11 05:33N 51°37' E 000°48'0 0.0
2014-Sep-11 04:33N 51°37' E 000°48'0 0.0
2014-Sep-11 03:33N 51°37' E 000°48'0 0.0
2014-Sep-11 02:33N 51°37' E 000°48'0 0.0
2014-Sep-11 01:33N 51°37' E 000°48'0 0.0
2014-Sep-11 00:33N 51°37' E 000°48'0 0.3
2014-Sep-10 23:33N 51°37' E 000°48'7 7.4
2014-Sep-10 22:33N 51°39' E 000°60'1111.1
2014-Sep-10 21:33N 51°43' E 001°16'1212.0
2014-Sep-10 20:34N 51°51' E 001°31'4 4.2
2014-Sep-10 19:33N 51°50' E 001°37'5 4.9
2014-Sep-10 18:33N 51°51' E 001°45'5 5.5
2014-Sep-10 17:33N 51°46' E 001°49'7 7.2
2014-Sep-10 16:33N 51°39' E 001°50'10 9.6
2014-Sep-10 15:33N 51°30' E 001°48'1010.0
2014-Sep-10 14:33N 51°20' E 001°45'1010.4
2014-Sep-10 13:33N 51°10' E 001°43'9 8.5
2014-Sep-10 12:33N 51°03' E 001°35'43 8.6
2014-Sep-10 07:33N 50°28' E 000°54'9 8.9
2014-Sep-10 06:32N 50°25' E 000°41'8 8.3
2014-Sep-10 05:33N 50°23' E 000°29'114 9.2
2014-Sep-09 17:14N 49°53' W 002°22'6 8.8
2014-Sep-09 16:33N 49°51' W 002°31'117 8.4
2014-Sep-09 02:33N 48°56' W 005°09'1010.4
2014-Sep-09 01:33N 48°50' W 005°23'10 9.8
2014-Sep-09 00:33N 48°45' W 005°35'10 9.5
2014-Sep-08 23:33N 48°37' W 005°42'8 8.3
2014-Sep-08 22:33N 48°29' W 005°47'  

Dump ship's entire track history